sensor_id;sensor_type;location;lat;lon;timestamp;P1;durP1;ratioP1;P2;durP2;ratioP2
8544;SDS011;4310;51.054;6.994;2022-09-17T00:00:06;14.93;;;13.95;;
8544;SDS011;4310;51.054;6.994;2022-09-17T00:01:13;13.95;;;12.85;;
8544;SDS011;4310;51.054;6.994;2022-09-17T00:02:15;15.10;;;14.00;;
8544;SDS011;4310;51.054;6.994;2022-09-17T00:03:19;14.63;;;13.45;;
8544;SDS011;4310;51.054;6.994;2022-09-17T00:04:24;16.67;;;15.45;;
8544;SDS011;4310;51.054;6.994;2022-09-17T00:06:40;16.32;;;15.23;;
8544;SDS011;4310;51.054;6.994;2022-09-17T00:07:44;17.55;;;16.40;;
8544;SDS011;4310;51.054;6.994;2022-09-17T00:08:48;17.07;;;15.90;;
8544;SDS011;4310;51.054;6.994;2022-09-17T00:09:52;17.37;;;16.15;;
8544;SDS011;4310;51.054;6.994;2022-09-17T00:10:56;18.80;;;17.57;;
8544;SDS011;4310;51.054;6.994;2022-09-17T00:13:11;17.93;;;16.60;;
8544;SDS011;4310;51.054;6.994;2022-09-17T00:14:15;17.17;;;15.72;;
8544;SDS011;4310;51.054;6.994;2022-09-17T00:15:19;17.32;;;16.02;;
8544;SDS011;4310;51.054;6.994;2022-09-17T00:16:25;17.67;;;16.40;;
8544;SDS011;4310;51.054;6.994;2022-09-17T00:17:29;18.77;;;17.55;;
8544;SDS011;4310;51.054;6.994;2022-09-17T00:18:33;19.10;;;17.80;;
8544;SDS011;4310;51.054;6.994;2022-09-17T00:20:50;17.32;;;16.23;;
8544;SDS011;4310;51.054;6.994;2022-09-17T00:21:53;18.02;;;16.95;;
8544;SDS011;4310;51.054;6.994;2022-09-17T00:22:57;17.60;;;16.40;;
8544;SDS011;4310;51.054;6.994;2022-09-17T00:24:02;17.82;;;16.62;;
8544;SDS011;4310;51.054;6.994;2022-09-17T00:25:06;17.70;;;16.57;;
8544;SDS011;4310;51.054;6.994;2022-09-17T00:26:10;15.63;;;14.63;;
8544;SDS011;4310;51.054;6.994;2022-09-17T00:29:38;18.15;;;16.93;;
8544;SDS011;4310;51.054;6.994;2022-09-17T00:30:43;19.27;;;18.05;;
8544;SDS011;4310;51.054;6.994;2022-09-17T00:32:59;18.62;;;17.15;;
8544;SDS011;4310;51.054;6.994;2022-09-17T00:34:03;19.75;;;18.35;;
8544;SDS011;4310;51.054;6.994;2022-09-17T00:35:07;18.25;;;16.97;;
8544;SDS011;4310;51.054;6.994;2022-09-17T00:36:11;18.17;;;16.87;;
8544;SDS011;4310;51.054;6.994;2022-09-17T00:37:15;19.67;;;18.37;;
8544;SDS011;4310;51.054;6.994;2022-09-17T00:38:18;20.65;;;19.32;;
8544;SDS011;4310;51.054;6.994;2022-09-17T00:39:22;21.80;;;20.40;;
8544;SDS011;4310;51.054;6.994;2022-09-17T00:40:26;22.27;;;20.92;;
8544;SDS011;4310;51.054;6.994;2022-09-17T00:41:30;22.40;;;20.97;;
8544;SDS011;4310;51.054;6.994;2022-09-17T00:42:34;22.32;;;20.75;;
8544;SDS011;4310;51.054;6.994;2022-09-17T00:43:40;21.60;;;20.12;;
8544;SDS011;4310;51.054;6.994;2022-09-17T00:45:56;22.25;;;20.77;;
8544;SDS011;4310;51.054;6.994;2022-09-17T00:48:11;21.23;;;19.77;;
8544;SDS011;4310;51.054;6.994;2022-09-17T00:50:27;23.05;;;21.52;;
8544;SDS011;4310;51.054;6.994;2022-09-17T00:51:33;25.02;;;23.22;;
8544;SDS011;4310;51.054;6.994;2022-09-17T00:52:39;22.35;;;20.75;;
8544;SDS011;4310;51.054;6.994;2022-09-17T00:53:43;22.58;;;21.12;;
8544;SDS011;4310;51.054;6.994;2022-09-17T00:54:50;23.10;;;21.42;;
8544;SDS011;4310;51.054;6.994;2022-09-17T00:55:55;22.77;;;21.17;;
8544;SDS011;4310;51.054;6.994;2022-09-17T00:56:59;24.30;;;22.80;;
8544;SDS011;4310;51.054;6.994;2022-09-17T00:58:05;25.65;;;24.12;;
8544;SDS011;4310;51.054;6.994;2022-09-17T00:59:08;23.87;;;22.32;;
8544;SDS011;4310;51.054;6.994;2022-09-17T01:00:13;26.87;;;25.32;;
8544;SDS011;4310;51.054;6.994;2022-09-17T01:01:17;26.90;;;25.20;;
8544;SDS011;4310;51.054;6.994;2022-09-17T01:03:33;25.77;;;24.07;;
8544;SDS011;4310;51.054;6.994;2022-09-17T01:04:37;27.15;;;25.30;;
8544;SDS011;4310;51.054;6.994;2022-09-17T01:05:41;28.57;;;26.75;;
8544;SDS011;4310;51.054;6.994;2022-09-17T01:06:47;28.00;;;26.40;;
8544;SDS011;4310;51.054;6.994;2022-09-17T01:07:55;28.07;;;26.30;;
8544;SDS011;4310;51.054;6.994;2022-09-17T01:09:06;27.80;;;26.20;;
8544;SDS011;4310;51.054;6.994;2022-09-17T01:10:12;25.23;;;23.75;;
8544;SDS011;4310;51.054;6.994;2022-09-17T01:11:21;25.90;;;24.00;;
8544;SDS011;4310;51.054;6.994;2022-09-17T01:12:35;23.27;;;21.77;;
8544;SDS011;4310;51.054;6.994;2022-09-17T01:14:57;24.77;;;23.10;;
8544;SDS011;4310;51.054;6.994;2022-09-17T01:16:04;23.40;;;21.82;;
8544;SDS011;4310;51.054;6.994;2022-09-17T01:17:08;28.52;;;26.85;;
8544;SDS011;4310;51.054;6.994;2022-09-17T01:18:15;24.17;;;22.90;;
8544;SDS011;4310;51.054;6.994;2022-09-17T01:22:09;72.67;;;69.22;;
8544;SDS011;4310;51.054;6.994;2022-09-17T01:26:03;377.15;;;363.07;;
8544;SDS011;4310;51.054;6.994;2022-09-17T01:27:12;387.35;;;372.55;;
8544;SDS011;4310;51.054;6.994;2022-09-17T01:28:34;380.12;;;365.30;;
8544;SDS011;4310;51.054;6.994;2022-09-17T01:29:46;365.65;;;351.73;;
8544;SDS011;4310;51.054;6.994;2022-09-17T01:31:09;358.55;;;344.85;;
8544;SDS011;4310;51.054;6.994;2022-09-17T01:32:14;362.42;;;348.25;;
8544;SDS011;4310;51.054;6.994;2022-09-17T01:33:21;362.20;;;348.30;;
8544;SDS011;4310;51.054;6.994;2022-09-17T01:35:37;348.82;;;334.98;;
8544;SDS011;4310;51.054;6.994;2022-09-17T01:36:43;349.40;;;335.85;;
8544;SDS011;4310;51.054;6.994;2022-09-17T01:37:49;343.55;;;329.75;;
8544;SDS011;4310;51.054;6.994;2022-09-17T01:40:06;336.10;;;322.88;;
8544;SDS011;4310;51.054;6.994;2022-09-17T01:41:13;341.85;;;327.35;;
8544;SDS011;4310;51.054;6.994;2022-09-17T01:42:17;331.90;;;317.87;;
8544;SDS011;4310;51.054;6.994;2022-09-17T01:43:23;333.68;;;319.73;;
8544;SDS011;4310;51.054;6.994;2022-09-17T01:44:27;325.98;;;312.38;;
8544;SDS011;4310;51.054;6.994;2022-09-17T01:45:34;321.85;;;308.52;;
8544;SDS011;4310;51.054;6.994;2022-09-17T01:46:39;319.05;;;305.67;;
8544;SDS011;4310;51.054;6.994;2022-09-17T01:47:43;309.12;;;296.02;;
8544;SDS011;4310;51.054;6.994;2022-09-17T01:48:49;312.55;;;299.23;;
8544;SDS011;4310;51.054;6.994;2022-09-17T01:49:54;292.55;;;280.05;;
8544;SDS011;4310;51.054;6.994;2022-09-17T01:50:59;292.92;;;280.90;;
8544;SDS011;4310;51.054;6.994;2022-09-17T01:52:04;288.23;;;276.20;;
8544;SDS011;4310;51.054;6.994;2022-09-17T01:53:09;286.75;;;274.45;;
8544;SDS011;4310;51.054;6.994;2022-09-17T01:54:16;276.15;;;264.52;;
8544;SDS011;4310;51.054;6.994;2022-09-17T01:55:19;266.40;;;254.80;;
8544;SDS011;4310;51.054;6.994;2022-09-17T01:56:25;264.85;;;253.55;;
8544;SDS011;4310;51.054;6.994;2022-09-17T01:57:31;268.23;;;256.38;;
8544;SDS011;4310;51.054;6.994;2022-09-17T01:58:36;258.77;;;247.60;;
8544;SDS011;4310;51.054;6.994;2022-09-17T01:59:42;260.50;;;249.22;;
8544;SDS011;4310;51.054;6.994;2022-09-17T02:02:00;242.65;;;232.05;;
8544;SDS011;4310;51.054;6.994;2022-09-17T02:03:05;230.75;;;220.85;;
8544;SDS011;4310;51.054;6.994;2022-09-17T02:04:09;210.68;;;201.45;;
8544;SDS011;4310;51.054;6.994;2022-09-17T02:05:15;211.37;;;202.00;;
8544;SDS011;4310;51.054;6.994;2022-09-17T02:06:20;202.13;;;193.00;;
8544;SDS011;4310;51.054;6.994;2022-09-17T02:07:24;196.12;;;187.72;;
8544;SDS011;4310;51.054;6.994;2022-09-17T02:08:29;184.25;;;175.82;;
8544;SDS011;4310;51.054;6.994;2022-09-17T02:09:35;183.40;;;175.07;;
8544;SDS011;4310;51.054;6.994;2022-09-17T02:10:40;171.90;;;164.07;;
8544;SDS011;4310;51.054;6.994;2022-09-17T02:11:45;153.60;;;146.62;;
8544;SDS011;4310;51.054;6.994;2022-09-17T02:12:50;153.47;;;146.43;;
8544;SDS011;4310;51.054;6.994;2022-09-17T02:13:57;149.77;;;142.80;;
8544;SDS011;4310;51.054;6.994;2022-09-17T02:15:01;148.62;;;141.57;;
8544;SDS011;4310;51.054;6.994;2022-09-17T02:16:06;149.80;;;142.65;;
8544;SDS011;4310;51.054;6.994;2022-09-17T02:17:11;150.65;;;143.50;;
8544;SDS011;4310;51.054;6.994;2022-09-17T02:18:16;136.12;;;129.72;;
8544;SDS011;4310;51.054;6.994;2022-09-17T02:19:22;134.43;;;128.47;;
8544;SDS011;4310;51.054;6.994;2022-09-17T02:21:39;136.82;;;130.37;;
8544;SDS011;4310;51.054;6.994;2022-09-17T02:22:44;131.85;;;125.97;;
8544;SDS011;4310;51.054;6.994;2022-09-17T02:23:51;127.15;;;121.28;;
8544;SDS011;4310;51.054;6.994;2022-09-17T02:24:57;125.00;;;119.05;;
8544;SDS011;4310;51.054;6.994;2022-09-17T02:26:03;125.80;;;120.10;;
8544;SDS011;4310;51.054;6.994;2022-09-17T02:27:09;121.20;;;115.80;;
8544;SDS011;4310;51.054;6.994;2022-09-17T02:28:13;110.90;;;105.97;;
8544;SDS011;4310;51.054;6.994;2022-09-17T02:29:18;103.50;;;98.52;;
8544;SDS011;4310;51.054;6.994;2022-09-17T02:30:23;94.25;;;89.75;;
8544;SDS011;4310;51.054;6.994;2022-09-17T02:31:26;89.28;;;85.05;;
8544;SDS011;4310;51.054;6.994;2022-09-17T02:32:30;90.22;;;85.60;;
8544;SDS011;4310;51.054;6.994;2022-09-17T02:34:45;85.05;;;80.90;;
8544;SDS011;4310;51.054;6.994;2022-09-17T02:35:49;77.55;;;73.60;;
8544;SDS011;4310;51.054;6.994;2022-09-17T02:36:53;79.47;;;75.25;;
8544;SDS011;4310;51.054;6.994;2022-09-17T02:37:57;76.02;;;72.22;;
8544;SDS011;4310;51.054;6.994;2022-09-17T02:39:01;84.13;;;79.72;;
8544;SDS011;4310;51.054;6.994;2022-09-17T02:40:07;87.53;;;82.97;;
8544;SDS011;4310;51.054;6.994;2022-09-17T02:41:13;86.75;;;82.62;;
8544;SDS011;4310;51.054;6.994;2022-09-17T02:42:19;87.17;;;82.97;;
8544;SDS011;4310;51.054;6.994;2022-09-17T02:43:25;86.92;;;82.60;;
8544;SDS011;4310;51.054;6.994;2022-09-17T02:45:44;80.72;;;76.72;;
8544;SDS011;4310;51.054;6.994;2022-09-17T02:48:07;81.17;;;76.95;;
8544;SDS011;4310;51.054;6.994;2022-09-17T02:49:18;80.25;;;76.20;;
8544;SDS011;4310;51.054;6.994;2022-09-17T02:50:28;90.32;;;85.85;;
8544;SDS011;4310;51.054;6.994;2022-09-17T02:51:34;85.65;;;81.63;;
8544;SDS011;4310;51.054;6.994;2022-09-17T02:53:55;80.67;;;76.45;;
8544;SDS011;4310;51.054;6.994;2022-09-17T02:54:59;80.90;;;76.80;;
8544;SDS011;4310;51.054;6.994;2022-09-17T02:56:08;82.00;;;77.90;;
8544;SDS011;4310;51.054;6.994;2022-09-17T02:57:16;78.00;;;73.97;;
8544;SDS011;4310;51.054;6.994;2022-09-17T02:58:20;78.83;;;74.92;;
8544;SDS011;4310;51.054;6.994;2022-09-17T02:59:24;87.47;;;83.00;;
8544;SDS011;4310;51.054;6.994;2022-09-17T03:01:41;83.60;;;79.20;;
8544;SDS011;4310;51.054;6.994;2022-09-17T03:02:47;88.65;;;84.05;;
8544;SDS011;4310;51.054;6.994;2022-09-17T03:03:51;92.95;;;88.33;;
8544;SDS011;4310;51.054;6.994;2022-09-17T03:04:57;88.60;;;84.45;;
8544;SDS011;4310;51.054;6.994;2022-09-17T03:06:01;91.05;;;86.37;;
8544;SDS011;4310;51.054;6.994;2022-09-17T03:08:16;84.80;;;80.72;;
8544;SDS011;4310;51.054;6.994;2022-09-17T03:09:21;83.17;;;79.25;;
8544;SDS011;4310;51.054;6.994;2022-09-17T03:10:25;81.55;;;77.55;;
8544;SDS011;4310;51.054;6.994;2022-09-17T03:11:29;89.32;;;84.87;;
8544;SDS011;4310;51.054;6.994;2022-09-17T03:12:33;85.95;;;81.78;;
8544;SDS011;4310;51.054;6.994;2022-09-17T03:13:37;80.55;;;76.55;;
8544;SDS011;4310;51.054;6.994;2022-09-17T03:14:41;81.95;;;77.82;;
8544;SDS011;4310;51.054;6.994;2022-09-17T03:15:44;78.40;;;74.50;;
8544;SDS011;4310;51.054;6.994;2022-09-17T03:16:48;74.85;;;71.25;;
8544;SDS011;4310;51.054;6.994;2022-09-17T03:17:52;69.55;;;65.97;;
8544;SDS011;4310;51.054;6.994;2022-09-17T03:18:55;66.57;;;63.20;;
8544;SDS011;4310;51.054;6.994;2022-09-17T03:19:59;65.77;;;62.30;;
8544;SDS011;4310;51.054;6.994;2022-09-17T03:21:03;62.88;;;59.70;;
8544;SDS011;4310;51.054;6.994;2022-09-17T03:22:07;51.70;;;48.90;;
8544;SDS011;4310;51.054;6.994;2022-09-17T03:23:11;49.75;;;46.90;;
8544;SDS011;4310;51.054;6.994;2022-09-17T03:24:14;55.03;;;51.88;;
8544;SDS011;4310;51.054;6.994;2022-09-17T03:25:18;54.45;;;51.55;;
8544;SDS011;4310;51.054;6.994;2022-09-17T03:26:22;54.45;;;51.35;;
8544;SDS011;4310;51.054;6.994;2022-09-17T03:27:26;48.80;;;45.98;;
8544;SDS011;4310;51.054;6.994;2022-09-17T03:28:29;47.93;;;45.08;;
8544;SDS011;4310;51.054;6.994;2022-09-17T03:29:33;50.17;;;47.13;;
8544;SDS011;4310;51.054;6.994;2022-09-17T03:30:37;44.77;;;42.47;;
8544;SDS011;4310;51.054;6.994;2022-09-17T03:31:40;44.15;;;41.55;;
8544;SDS011;4310;51.054;6.994;2022-09-17T03:32:45;43.60;;;40.88;;
8544;SDS011;4310;51.054;6.994;2022-09-17T03:33:48;42.15;;;39.80;;
8544;SDS011;4310;51.054;6.994;2022-09-17T03:34:52;44.30;;;41.63;;
8544;SDS011;4310;51.054;6.994;2022-09-17T03:35:56;44.70;;;41.80;;
8544;SDS011;4310;51.054;6.994;2022-09-17T03:37:00;45.28;;;42.67;;
8544;SDS011;4310;51.054;6.994;2022-09-17T03:38:04;47.62;;;44.95;;
8544;SDS011;4310;51.054;6.994;2022-09-17T03:39:07;43.40;;;40.90;;
8544;SDS011;4310;51.054;6.994;2022-09-17T03:40:11;42.78;;;39.90;;
8544;SDS011;4310;51.054;6.994;2022-09-17T03:41:15;41.50;;;38.95;;
8544;SDS011;4310;51.054;6.994;2022-09-17T03:43:30;36.85;;;34.67;;
8544;SDS011;4310;51.054;6.994;2022-09-17T03:44:34;39.23;;;36.65;;
8544;SDS011;4310;51.054;6.994;2022-09-17T03:45:38;37.67;;;35.35;;
8544;SDS011;4310;51.054;6.994;2022-09-17T03:46:41;39.25;;;36.70;;
8544;SDS011;4310;51.054;6.994;2022-09-17T03:47:45;39.38;;;37.10;;
8544;SDS011;4310;51.054;6.994;2022-09-17T03:48:49;35.10;;;32.80;;
8544;SDS011;4310;51.054;6.994;2022-09-17T03:49:53;36.40;;;34.03;;
8544;SDS011;4310;51.054;6.994;2022-09-17T03:50:57;36.53;;;34.23;;
8544;SDS011;4310;51.054;6.994;2022-09-17T03:52:01;33.67;;;31.57;;
8544;SDS011;4310;51.054;6.994;2022-09-17T03:53:04;34.33;;;32.13;;
8544;SDS011;4310;51.054;6.994;2022-09-17T03:54:08;33.42;;;31.42;;
8544;SDS011;4310;51.054;6.994;2022-09-17T03:55:13;35.90;;;33.42;;
8544;SDS011;4310;51.054;6.994;2022-09-17T03:57:30;33.83;;;31.70;;
8544;SDS011;4310;51.054;6.994;2022-09-17T03:58:34;35.52;;;33.42;;
8544;SDS011;4310;51.054;6.994;2022-09-17T03:59:37;33.95;;;31.57;;
8544;SDS011;4310;51.054;6.994;2022-09-17T04:00:41;32.40;;;30.25;;
8544;SDS011;4310;51.054;6.994;2022-09-17T04:02:57;34.20;;;31.87;;
8544;SDS011;4310;51.054;6.994;2022-09-17T04:04:01;35.98;;;33.88;;
8544;SDS011;4310;51.054;6.994;2022-09-17T04:05:07;37.78;;;35.38;;
8544;SDS011;4310;51.054;6.994;2022-09-17T04:06:11;35.65;;;33.48;;
8544;SDS011;4310;51.054;6.994;2022-09-17T04:07:14;35.45;;;33.48;;
8544;SDS011;4310;51.054;6.994;2022-09-17T04:08:18;35.93;;;33.77;;
8544;SDS011;4310;51.054;6.994;2022-09-17T04:10:33;32.90;;;31.02;;
8544;SDS011;4310;51.054;6.994;2022-09-17T04:11:37;34.70;;;32.67;;
8544;SDS011;4310;51.054;6.994;2022-09-17T04:12:41;36.42;;;34.25;;
8544;SDS011;4310;51.054;6.994;2022-09-17T04:13:44;33.42;;;31.52;;
8544;SDS011;4310;51.054;6.994;2022-09-17T04:14:48;35.88;;;33.30;;
8544;SDS011;4310;51.054;6.994;2022-09-17T04:15:52;34.30;;;32.20;;
8544;SDS011;4310;51.054;6.994;2022-09-17T04:16:57;36.35;;;33.98;;
8544;SDS011;4310;51.054;6.994;2022-09-17T04:19:12;40.03;;;37.73;;
8544;SDS011;4310;51.054;6.994;2022-09-17T04:20:16;35.95;;;33.98;;
8544;SDS011;4310;51.054;6.994;2022-09-17T04:22:31;40.10;;;37.95;;
8544;SDS011;4310;51.054;6.994;2022-09-17T04:23:35;40.33;;;37.75;;
8544;SDS011;4310;51.054;6.994;2022-09-17T04:24:39;39.58;;;37.10;;
8544;SDS011;4310;51.054;6.994;2022-09-17T04:25:42;40.23;;;37.77;;
8544;SDS011;4310;51.054;6.994;2022-09-17T04:26:46;38.30;;;36.10;;
8544;SDS011;4310;51.054;6.994;2022-09-17T04:29:01;40.60;;;37.93;;
8544;SDS011;4310;51.054;6.994;2022-09-17T04:30:06;41.50;;;39.10;;
8544;SDS011;4310;51.054;6.994;2022-09-17T04:31:10;36.53;;;34.43;;
8544;SDS011;4310;51.054;6.994;2022-09-17T04:32:14;36.15;;;34.25;;
8544;SDS011;4310;51.054;6.994;2022-09-17T04:34:29;37.23;;;34.98;;
8544;SDS011;4310;51.054;6.994;2022-09-17T04:35:33;38.50;;;36.30;;
8544;SDS011;4310;51.054;6.994;2022-09-17T04:36:37;41.45;;;38.80;;
8544;SDS011;4310;51.054;6.994;2022-09-17T04:37:40;37.83;;;35.65;;
8544;SDS011;4310;51.054;6.994;2022-09-17T04:38:47;36.80;;;34.35;;
8544;SDS011;4310;51.054;6.994;2022-09-17T04:39:50;40.83;;;38.10;;
8544;SDS011;4310;51.054;6.994;2022-09-17T04:40:54;39.05;;;36.75;;
8544;SDS011;4310;51.054;6.994;2022-09-17T04:41:58;39.92;;;37.73;;
8544;SDS011;4310;51.054;6.994;2022-09-17T04:43:02;43.05;;;40.75;;
8544;SDS011;4310;51.054;6.994;2022-09-17T04:44:06;41.25;;;38.95;;
8544;SDS011;4310;51.054;6.994;2022-09-17T04:45:10;37.10;;;34.83;;
8544;SDS011;4310;51.054;6.994;2022-09-17T04:46:13;36.55;;;34.30;;
8544;SDS011;4310;51.054;6.994;2022-09-17T04:47:18;37.10;;;35.08;;
8544;SDS011;4310;51.054;6.994;2022-09-17T04:48:21;38.50;;;36.10;;
8544;SDS011;4310;51.054;6.994;2022-09-17T04:49:25;39.75;;;37.48;;
8544;SDS011;4310;51.054;6.994;2022-09-17T04:50:31;39.65;;;37.35;;
8544;SDS011;4310;51.054;6.994;2022-09-17T04:51:34;40.00;;;37.67;;
8544;SDS011;4310;51.054;6.994;2022-09-17T04:53:52;36.63;;;34.48;;
8544;SDS011;4310;51.054;6.994;2022-09-17T04:54:56;38.33;;;35.97;;
8544;SDS011;4310;51.054;6.994;2022-09-17T04:56:00;36.40;;;34.25;;
8544;SDS011;4310;51.054;6.994;2022-09-17T04:57:04;40.00;;;37.70;;
8544;SDS011;4310;51.054;6.994;2022-09-17T04:58:08;40.40;;;38.02;;
8544;SDS011;4310;51.054;6.994;2022-09-17T04:59:11;41.28;;;38.48;;
8544;SDS011;4310;51.054;6.994;2022-09-17T05:01:27;45.33;;;42.85;;
8544;SDS011;4310;51.054;6.994;2022-09-17T05:02:30;48.90;;;46.30;;
8544;SDS011;4310;51.054;6.994;2022-09-17T05:03:34;48.28;;;45.52;;
8544;SDS011;4310;51.054;6.994;2022-09-17T05:04:38;46.55;;;43.85;;
8544;SDS011;4310;51.054;6.994;2022-09-17T05:05:42;49.83;;;47.10;;
8544;SDS011;4310;51.054;6.994;2022-09-17T05:06:45;48.75;;;46.02;;
8544;SDS011;4310;51.054;6.994;2022-09-17T05:07:49;52.78;;;49.77;;
8544;SDS011;4310;51.054;6.994;2022-09-17T05:08:53;52.05;;;49.15;;
8544;SDS011;4310;51.054;6.994;2022-09-17T05:09:57;53.40;;;50.30;;
8544;SDS011;4310;51.054;6.994;2022-09-17T05:11:00;51.85;;;49.20;;
8544;SDS011;4310;51.054;6.994;2022-09-17T05:12:04;56.18;;;53.08;;
8544;SDS011;4310;51.054;6.994;2022-09-17T05:13:08;53.17;;;50.52;;
8544;SDS011;4310;51.054;6.994;2022-09-17T05:14:12;56.48;;;53.48;;
8544;SDS011;4310;51.054;6.994;2022-09-17T05:15:16;56.30;;;53.23;;
8544;SDS011;4310;51.054;6.994;2022-09-17T05:16:19;55.90;;;52.98;;
8544;SDS011;4310;51.054;6.994;2022-09-17T05:17:23;58.52;;;55.30;;
8544;SDS011;4310;51.054;6.994;2022-09-17T05:19:38;53.98;;;50.98;;
8544;SDS011;4310;51.054;6.994;2022-09-17T05:20:42;59.77;;;56.40;;
8544;SDS011;4310;51.054;6.994;2022-09-17T05:21:46;60.35;;;57.23;;
8544;SDS011;4310;51.054;6.994;2022-09-17T05:22:50;64.00;;;60.52;;
8544;SDS011;4310;51.054;6.994;2022-09-17T05:23:54;60.55;;;57.33;;
8544;SDS011;4310;51.054;6.994;2022-09-17T05:24:58;59.95;;;56.95;;
8544;SDS011;4310;51.054;6.994;2022-09-17T05:26:02;59.27;;;56.08;;
8544;SDS011;4310;51.054;6.994;2022-09-17T05:27:06;63.20;;;59.93;;
8544;SDS011;4310;51.054;6.994;2022-09-17T05:28:09;64.17;;;60.65;;
8544;SDS011;4310;51.054;6.994;2022-09-17T05:30:25;68.10;;;64.60;;
8544;SDS011;4310;51.054;6.994;2022-09-17T05:31:28;71.62;;;67.95;;
8544;SDS011;4310;51.054;6.994;2022-09-17T05:32:32;73.52;;;69.70;;
8544;SDS011;4310;51.054;6.994;2022-09-17T05:33:36;71.85;;;68.20;;
8544;SDS011;4310;51.054;6.994;2022-09-17T05:34:40;73.02;;;69.25;;
8544;SDS011;4310;51.054;6.994;2022-09-17T05:35:44;70.78;;;67.00;;
8544;SDS011;4310;51.054;6.994;2022-09-17T05:36:47;67.32;;;63.98;;
8544;SDS011;4310;51.054;6.994;2022-09-17T05:37:52;64.58;;;61.15;;
8544;SDS011;4310;51.054;6.994;2022-09-17T05:38:56;63.13;;;59.70;;
8544;SDS011;4310;51.054;6.994;2022-09-17T05:40:00;64.95;;;61.45;;
8544;SDS011;4310;51.054;6.994;2022-09-17T05:41:04;64.50;;;61.15;;
8544;SDS011;4310;51.054;6.994;2022-09-17T05:43:20;66.40;;;63.10;;
8544;SDS011;4310;51.054;6.994;2022-09-17T05:44:23;61.45;;;58.33;;
8544;SDS011;4310;51.054;6.994;2022-09-17T05:45:27;64.58;;;60.85;;
8544;SDS011;4310;51.054;6.994;2022-09-17T05:46:31;61.90;;;58.42;;
8544;SDS011;4310;51.054;6.994;2022-09-17T05:47:35;61.70;;;58.40;;
8544;SDS011;4310;51.054;6.994;2022-09-17T05:48:38;63.83;;;60.45;;
8544;SDS011;4310;51.054;6.994;2022-09-17T05:50:55;62.70;;;59.38;;
8544;SDS011;4310;51.054;6.994;2022-09-17T05:51:59;56.23;;;53.20;;
8544;SDS011;4310;51.054;6.994;2022-09-17T05:53:03;55.47;;;52.43;;
8544;SDS011;4310;51.054;6.994;2022-09-17T05:54:07;53.30;;;50.45;;
8544;SDS011;4310;51.054;6.994;2022-09-17T05:55:11;54.20;;;51.30;;
8544;SDS011;4310;51.054;6.994;2022-09-17T05:56:15;56.65;;;53.28;;
8544;SDS011;4310;51.054;6.994;2022-09-17T05:57:18;52.62;;;49.75;;
8544;SDS011;4310;51.054;6.994;2022-09-17T05:58:22;49.93;;;47.35;;
8544;SDS011;4310;51.054;6.994;2022-09-17T05:59:26;52.45;;;49.73;;
8544;SDS011;4310;51.054;6.994;2022-09-17T06:00:30;53.15;;;50.23;;
8544;SDS011;4310;51.054;6.994;2022-09-17T06:01:33;47.27;;;44.75;;
8544;SDS011;4310;51.054;6.994;2022-09-17T06:03:48;47.05;;;44.75;;
8544;SDS011;4310;51.054;6.994;2022-09-17T06:04:52;41.37;;;38.88;;
8544;SDS011;4310;51.054;6.994;2022-09-17T06:05:57;40.30;;;38.00;;
8544;SDS011;4310;51.054;6.994;2022-09-17T06:07:03;41.28;;;38.95;;
8544;SDS011;4310;51.054;6.994;2022-09-17T06:08:07;38.23;;;35.87;;
8544;SDS011;4310;51.054;6.994;2022-09-17T06:09:11;37.97;;;35.63;;
8544;SDS011;4310;51.054;6.994;2022-09-17T06:10:15;39.37;;;37.17;;
8544;SDS011;4310;51.054;6.994;2022-09-17T06:11:19;39.40;;;37.10;;
8544;SDS011;4310;51.054;6.994;2022-09-17T06:12:23;36.17;;;33.88;;
8544;SDS011;4310;51.054;6.994;2022-09-17T06:14:38;31.55;;;29.80;;
8544;SDS011;4310;51.054;6.994;2022-09-17T06:15:41;31.62;;;29.60;;
8544;SDS011;4310;51.054;6.994;2022-09-17T06:16:45;34.27;;;32.23;;
8544;SDS011;4310;51.054;6.994;2022-09-17T06:19:00;23.77;;;22.25;;
8544;SDS011;4310;51.054;6.994;2022-09-17T06:20:06;28.77;;;26.82;;
8544;SDS011;4310;51.054;6.994;2022-09-17T06:22:21;23.38;;;21.57;;
8544;SDS011;4310;51.054;6.994;2022-09-17T06:23:25;20.68;;;19.15;;
8544;SDS011;4310;51.054;6.994;2022-09-17T06:24:29;20.48;;;18.57;;
8544;SDS011;4310;51.054;6.994;2022-09-17T06:25:33;20.62;;;19.12;;
8544;SDS011;4310;51.054;6.994;2022-09-17T06:26:37;18.65;;;17.35;;
8544;SDS011;4310;51.054;6.994;2022-09-17T06:27:41;16.97;;;15.58;;
8544;SDS011;4310;51.054;6.994;2022-09-17T06:28:44;17.10;;;15.75;;
8544;SDS011;4310;51.054;6.994;2022-09-17T06:29:48;17.85;;;16.40;;
8544;SDS011;4310;51.054;6.994;2022-09-17T06:30:52;14.38;;;13.28;;
8544;SDS011;4310;51.054;6.994;2022-09-17T06:31:57;23.07;;;21.17;;
8544;SDS011;4310;51.054;6.994;2022-09-17T06:33:02;28.67;;;26.93;;
8544;SDS011;4310;51.054;6.994;2022-09-17T06:34:05;30.60;;;28.70;;
8544;SDS011;4310;51.054;6.994;2022-09-17T06:35:09;28.07;;;26.37;;
8544;SDS011;4310;51.054;6.994;2022-09-17T06:36:13;33.63;;;31.68;;
8544;SDS011;4310;51.054;6.994;2022-09-17T06:37:17;69.77;;;66.62;;
8544;SDS011;4310;51.054;6.994;2022-09-17T06:39:32;149.82;;;143.17;;
8544;SDS011;4310;51.054;6.994;2022-09-17T06:40:36;198.43;;;190.55;;
8544;SDS011;4310;51.054;6.994;2022-09-17T06:41:40;254.30;;;243.97;;
8544;SDS011;4310;51.054;6.994;2022-09-17T06:43:56;204.87;;;196.78;;
8544;SDS011;4310;51.054;6.994;2022-09-17T06:45:00;159.05;;;152.60;;
8544;SDS011;4310;51.054;6.994;2022-09-17T06:46:04;136.35;;;130.70;;
8544;SDS011;4310;51.054;6.994;2022-09-17T06:47:09;148.62;;;142.68;;
8544;SDS011;4310;51.054;6.994;2022-09-17T06:48:13;185.88;;;178.60;;
8544;SDS011;4310;51.054;6.994;2022-09-17T06:49:18;293.83;;;282.83;;
8544;SDS011;4310;51.054;6.994;2022-09-17T06:50:22;371.43;;;357.70;;
8544;SDS011;4310;51.054;6.994;2022-09-17T06:51:26;374.20;;;360.08;;
8544;SDS011;4310;51.054;6.994;2022-09-17T06:52:30;350.35;;;337.38;;
8544;SDS011;4310;51.054;6.994;2022-09-17T06:53:34;357.12;;;344.10;;
8544;SDS011;4310;51.054;6.994;2022-09-17T06:54:38;353.40;;;340.15;;
8544;SDS011;4310;51.054;6.994;2022-09-17T06:55:42;354.35;;;341.27;;
8544;SDS011;4310;51.054;6.994;2022-09-17T06:57:58;341.60;;;329.02;;
8544;SDS011;4310;51.054;6.994;2022-09-17T06:59:02;343.07;;;330.65;;
8544;SDS011;4310;51.054;6.994;2022-09-17T07:01:18;334.55;;;322.10;;
8544;SDS011;4310;51.054;6.994;2022-09-17T07:03:33;287.63;;;276.80;;
8544;SDS011;4310;51.054;6.994;2022-09-17T07:04:37;273.98;;;263.70;;
8544;SDS011;4310;51.054;6.994;2022-09-17T07:05:42;283.62;;;273.00;;
8544;SDS011;4310;51.054;6.994;2022-09-17T07:06:46;276.15;;;265.92;;
8544;SDS011;4310;51.054;6.994;2022-09-17T07:07:50;272.02;;;261.70;;
8544;SDS011;4310;51.054;6.994;2022-09-17T07:10:07;255.85;;;246.28;;
8544;SDS011;4310;51.054;6.994;2022-09-17T07:11:11;240.52;;;231.30;;
8544;SDS011;4310;51.054;6.994;2022-09-17T07:12:15;232.10;;;223.07;;
8544;SDS011;4310;51.054;6.994;2022-09-17T07:13:18;235.17;;;226.20;;
8544;SDS011;4310;51.054;6.994;2022-09-17T07:14:22;227.15;;;218.35;;
8544;SDS011;4310;51.054;6.994;2022-09-17T07:15:26;176.72;;;169.72;;
8544;SDS011;4310;51.054;6.994;2022-09-17T07:16:30;137.12;;;131.37;;
8544;SDS011;4310;51.054;6.994;2022-09-17T07:18:47;109.17;;;104.50;;
8544;SDS011;4310;51.054;6.994;2022-09-17T07:21:03;57.27;;;54.18;;
8544;SDS011;4310;51.054;6.994;2022-09-17T07:22:07;50.08;;;47.35;;
8544;SDS011;4310;51.054;6.994;2022-09-17T07:23:11;16.35;;;14.95;;
8544;SDS011;4310;51.054;6.994;2022-09-17T07:24:15;11.48;;;10.38;;
8544;SDS011;4310;51.054;6.994;2022-09-17T07:25:18;8.48;;;7.17;;
8544;SDS011;4310;51.054;6.994;2022-09-17T07:26:22;10.80;;;8.73;;
8544;SDS011;4310;51.054;6.994;2022-09-17T07:27:26;9.58;;;6.00;;